sensor_id;sensor_type;location;lat;lon;timestamp;P1;durP1;ratioP1;P2;durP2;ratioP2
17261;SDS011;9873;52.236;21.002;2022-11-11T00:00:16;17.83;;;11.43;;
17261;SDS011;9873;52.236;21.002;2022-11-11T00:10:37;25.57;;;12.53;;
17261;SDS011;9873;52.236;21.002;2022-11-11T00:21:01;19.37;;;11.67;;
17261;SDS011;9873;52.236;21.002;2022-11-11T00:31:40;27.13;;;12.70;;
17261;SDS011;9873;52.236;21.002;2022-11-11T00:42:20;25.13;;;13.10;;
17261;SDS011;9873;52.236;21.002;2022-11-11T00:52:41;23.97;;;13.20;;
17261;SDS011;9873;52.236;21.002;2022-11-11T01:03:07;25.53;;;13.90;;
17261;SDS011;9873;52.236;21.002;2022-11-11T01:13:29;32.23;;;18.70;;
17261;SDS011;9873;52.236;21.002;2022-11-11T01:23:51;33.33;;;19.37;;
17261;SDS011;9873;52.236;21.002;2022-11-11T01:34:16;23.77;;;13.87;;
17261;SDS011;9873;52.236;21.002;2022-11-11T01:44:46;22.87;;;12.80;;
17261;SDS011;9873;52.236;21.002;2022-11-11T01:55:18;20.60;;;12.70;;
17261;SDS011;9873;52.236;21.002;2022-11-11T02:05:40;23.93;;;12.17;;
17261;SDS011;9873;52.236;21.002;2022-11-11T02:16:07;24.47;;;12.53;;
17261;SDS011;9873;52.236;21.002;2022-11-11T02:26:31;19.77;;;12.00;;
17261;SDS011;9873;52.236;21.002;2022-11-11T02:36:54;21.03;;;12.00;;
17261;SDS011;9873;52.236;21.002;2022-11-11T02:47:15;21.60;;;12.20;;
17261;SDS011;9873;52.236;21.002;2022-11-11T02:57:37;22.83;;;12.50;;
17261;SDS011;9873;52.236;21.002;2022-11-11T03:08:00;20.83;;;11.23;;
17261;SDS011;9873;52.236;21.002;2022-11-11T03:18:21;17.17;;;10.83;;
17261;SDS011;9873;52.236;21.002;2022-11-11T03:28:42;24.00;;;12.63;;
17261;SDS011;9873;52.236;21.002;2022-11-11T03:39:02;21.17;;;10.83;;
17261;SDS011;9873;52.236;21.002;2022-11-11T03:49:23;15.63;;;10.10;;
17261;SDS011;9873;52.236;21.002;2022-11-11T03:59:49;23.93;;;11.53;;
17261;SDS011;9873;52.236;21.002;2022-11-11T04:10:09;23.77;;;12.07;;
17261;SDS011;9873;52.236;21.002;2022-11-11T04:20:42;19.77;;;11.03;;
17261;SDS011;9873;52.236;21.002;2022-11-11T04:31:22;26.03;;;11.93;;
17261;SDS011;9873;52.236;21.002;2022-11-11T04:41:44;19.13;;;10.13;;
17261;SDS011;9873;52.236;21.002;2022-11-11T04:52:26;20.10;;;10.73;;
17261;SDS011;9873;52.236;21.002;2022-11-11T05:02:47;20.00;;;10.10;;
17261;SDS011;9873;52.236;21.002;2022-11-11T05:13:29;19.10;;;10.90;;
17261;SDS011;9873;52.236;21.002;2022-11-11T05:24:11;19.97;;;11.40;;
17261;SDS011;9873;52.236;21.002;2022-11-11T05:34:56;17.30;;;9.50;;
17261;SDS011;9873;52.236;21.002;2022-11-11T05:45:17;19.70;;;10.67;;
17261;SDS011;9873;52.236;21.002;2022-11-11T05:55:37;21.80;;;9.93;;
17261;SDS011;9873;52.236;21.002;2022-11-11T06:05:58;19.93;;;9.67;;
17261;SDS011;9873;52.236;21.002;2022-11-11T06:16:19;17.57;;;8.03;;
17261;SDS011;9873;52.236;21.002;2022-11-11T06:26:39;14.17;;;8.00;;
17261;SDS011;9873;52.236;21.002;2022-11-11T06:37:00;15.47;;;8.67;;
17261;SDS011;9873;52.236;21.002;2022-11-11T06:47:22;16.77;;;8.37;;
17261;SDS011;9873;52.236;21.002;2022-11-11T06:57:43;15.23;;;9.10;;
17261;SDS011;9873;52.236;21.002;2022-11-11T07:08:06;15.33;;;8.20;;
17261;SDS011;9873;52.236;21.002;2022-11-11T07:18:30;14.20;;;8.17;;
17261;SDS011;9873;52.236;21.002;2022-11-11T07:28:51;13.80;;;8.50;;
17261;SDS011;9873;52.236;21.002;2022-11-11T07:39:17;15.90;;;8.70;;
17261;SDS011;9873;52.236;21.002;2022-11-11T07:49:40;16.15;;;9.35;;
17261;SDS011;9873;52.236;21.002;2022-11-11T08:00:04;14.07;;;7.87;;
17261;SDS011;9873;52.236;21.002;2022-11-11T08:10:27;18.23;;;8.33;;
17261;SDS011;9873;52.236;21.002;2022-11-11T08:20:50;13.35;;;7.20;;
17261;SDS011;9873;52.236;21.002;2022-11-11T08:31:14;12.07;;;8.07;;
17261;SDS011;9873;52.236;21.002;2022-11-11T08:41:37;15.05;;;8.07;;
17261;SDS011;9873;52.236;21.002;2022-11-11T08:51:59;14.55;;;7.68;;
17261;SDS011;9873;52.236;21.002;2022-11-11T09:02:23;15.45;;;7.70;;
17261;SDS011;9873;52.236;21.002;2022-11-11T09:12:43;16.38;;;7.88;;
17261;SDS011;9873;52.236;21.002;2022-11-11T09:23:08;13.60;;;8.63;;
17261;SDS011;9873;52.236;21.002;2022-11-11T09:33:31;12.52;;;7.57;;
17261;SDS011;9873;52.236;21.002;2022-11-11T09:44:03;16.33;;;7.63;;
17261;SDS011;9873;52.236;21.002;2022-11-11T09:54:36;14.35;;;7.68;;
17261;SDS011;9873;52.236;21.002;2022-11-11T10:05:21;17.90;;;8.13;;
17261;SDS011;9873;52.236;21.002;2022-11-11T10:26:36;13.38;;;7.28;;
17261;SDS011;9873;52.236;21.002;2022-11-11T10:36:58;13.88;;;6.63;;
17261;SDS011;9873;52.236;21.002;2022-11-11T10:58:19;12.13;;;6.20;;
17261;SDS011;9873;52.236;21.002;2022-11-11T11:08:56;14.98;;;6.95;;
17261;SDS011;9873;52.236;21.002;2022-11-11T11:19:26;14.63;;;6.57;;
17261;SDS011;9873;52.236;21.002;2022-11-11T11:29:48;11.60;;;7.20;;
17261;SDS011;9873;52.236;21.002;2022-11-11T11:40:10;12.00;;;7.28;;
17261;SDS011;9873;52.236;21.002;2022-11-11T12:44:04;13.07;;;6.18;;
17261;SDS011;9873;52.236;21.002;2022-11-11T13:05:06;7.78;;;5.20;;
17261;SDS011;9873;52.236;21.002;2022-11-11T13:15:31;12.18;;;5.20;;
17261;SDS011;9873;52.236;21.002;2022-11-11T13:25:57;13.68;;;5.38;;
17261;SDS011;9873;52.236;21.002;2022-11-11T13:36:22;12.77;;;6.15;;
17261;SDS011;9873;52.236;21.002;2022-11-11T13:46:47;11.65;;;5.60;;
17261;SDS011;9873;52.236;21.002;2022-11-11T14:28:47;10.63;;;7.15;;
17261;SDS011;9873;52.236;21.002;2022-11-11T14:39:29;10.83;;;7.53;;
17261;SDS011;9873;52.236;21.002;2022-11-11T14:50:02;15.00;;;8.65;;
17261;SDS011;9873;52.236;21.002;2022-11-11T15:11:39;15.23;;;9.17;;
17261;SDS011;9873;52.236;21.002;2022-11-11T15:22:20;14.03;;;9.00;;
17261;SDS011;9873;52.236;21.002;2022-11-11T15:43:32;15.20;;;8.85;;
17261;SDS011;9873;52.236;21.002;2022-11-11T16:04:34;11.95;;;8.00;;
17261;SDS011;9873;52.236;21.002;2022-11-11T16:15:20;19.13;;;9.60;;
17261;SDS011;9873;52.236;21.002;2022-11-11T16:25:48;13.73;;;7.85;;
17261;SDS011;9873;52.236;21.002;2022-11-11T16:36:13;16.13;;;8.23;;
17261;SDS011;9873;52.236;21.002;2022-11-11T16:56:57;15.63;;;8.37;;
17261;SDS011;9873;52.236;21.002;2022-11-11T17:07:32;18.73;;;8.52;;
17261;SDS011;9873;52.236;21.002;2022-11-11T17:17:57;16.50;;;9.67;;
17261;SDS011;9873;52.236;21.002;2022-11-11T17:28:21;19.20;;;9.80;;
17261;SDS011;9873;52.236;21.002;2022-11-11T17:38:44;20.23;;;10.00;;
17261;SDS011;9873;52.236;21.002;2022-11-11T17:49:05;17.87;;;10.13;;
17261;SDS011;9873;52.236;21.002;2022-11-11T17:59:27;22.50;;;10.70;;
17261;SDS011;9873;52.236;21.002;2022-11-11T18:09:50;19.70;;;10.63;;
17261;SDS011;9873;52.236;21.002;2022-11-11T18:20:10;21.97;;;11.47;;
17261;SDS011;9873;52.236;21.002;2022-11-11T18:30:33;19.70;;;10.47;;
17261;SDS011;9873;52.236;21.002;2022-11-11T18:41:01;16.97;;;11.93;;
17261;SDS011;9873;52.236;21.002;2022-11-11T18:51:32;19.43;;;11.23;;
17261;SDS011;9873;52.236;21.002;2022-11-11T19:01:55;18.42;;;11.15;;
17261;SDS011;9873;52.236;21.002;2022-11-11T19:12:19;18.10;;;11.35;;
17261;SDS011;9873;52.236;21.002;2022-11-11T19:22:39;18.73;;;11.67;;
17261;SDS011;9873;52.236;21.002;2022-11-11T19:33:01;20.05;;;12.20;;
17261;SDS011;9873;52.236;21.002;2022-11-11T19:43:25;20.93;;;12.37;;
17261;SDS011;9873;52.236;21.002;2022-11-11T19:53:47;17.73;;;10.77;;
17261;SDS011;9873;52.236;21.002;2022-11-11T20:04:17;18.43;;;11.20;;
17261;SDS011;9873;52.236;21.002;2022-11-11T20:14:40;19.95;;;11.65;;
17261;SDS011;9873;52.236;21.002;2022-11-11T20:25:00;18.85;;;10.75;;
17261;SDS011;9873;52.236;21.002;2022-11-11T20:35:26;20.80;;;12.13;;
17261;SDS011;9873;52.236;21.002;2022-11-11T20:46:03;23.00;;;11.67;;
17261;SDS011;9873;52.236;21.002;2022-11-11T20:56:25;22.23;;;12.27;;
17261;SDS011;9873;52.236;21.002;2022-11-11T21:06:46;22.30;;;12.32;;
17261;SDS011;9873;52.236;21.002;2022-11-11T21:17:09;18.13;;;12.47;;
17261;SDS011;9873;52.236;21.002;2022-11-11T21:27:32;22.17;;;13.60;;
17261;SDS011;9873;52.236;21.002;2022-11-11T21:37:53;19.80;;;12.77;;
17261;SDS011;9873;52.236;21.002;2022-11-11T21:48:18;24.30;;;13.13;;
17261;SDS011;9873;52.236;21.002;2022-11-11T21:58:49;25.30;;;12.63;;
17261;SDS011;9873;52.236;21.002;2022-11-11T22:09:16;20.90;;;11.87;;
17261;SDS011;9873;52.236;21.002;2022-11-11T22:19:39;18.30;;;11.43;;
17261;SDS011;9873;52.236;21.002;2022-11-11T22:30:00;20.80;;;11.98;;
17261;SDS011;9873;52.236;21.002;2022-11-11T22:40:21;23.60;;;12.63;;
17261;SDS011;9873;52.236;21.002;2022-11-11T22:50:42;20.27;;;11.90;;
17261;SDS011;9873;52.236;21.002;2022-11-11T23:01:09;18.43;;;11.67;;
17261;SDS011;9873;52.236;21.002;2022-11-11T23:11:34;18.73;;;10.83;;
17261;SDS011;9873;52.236;21.002;2022-11-11T23:21:56;23.50;;;10.87;;
17261;SDS011;9873;52.236;21.002;2022-11-11T23:32:18;19.13;;;11.87;;
17261;SDS011;9873;52.236;21.002;2022-11-11T23:42:39;21.98;;;12.82;;
17261;SDS011;9873;52.236;21.002;2022-11-11T23:53:02;21.45;;;11.82;;
